Time;durP1;ratioP1;P1;durP2;ratioP2;P2;SDS_P1;SDS_P2;PMS_P1;PMS_P2;Temp;Humidity;BMP_temperature;BMP_pressure;BME280_temperature;BME280_humidity;BME280_pressure;Samples;Min_cycle;Max_cycle;Signal;HPM_P1;HPM_P2
2022/07/20 00:00:33;;;;;;;5.55;3.70;;;27.20;47.10;;;;;;5081130;28;20028;-91
2022/07/20 00:03:11;;;;;;;7.20;3.85;;;27.10;47.30;;;;;;5099330;28;20107;-90
2022/07/20 00:05:37;;;;;;;9.68;4.60;;;27.20;47.20;;;;;;5081307;28;20024;-91
2022/07/20 00:08:03;;;;;;;10.40;4.20;;;27.20;47.30;;;;;;5081536;28;20035;-91
2022/07/20 00:13:14;;;;;;;7.57;3.95;;;27.10;47.30;;;;;;5099902;28;20137;-89
2022/07/20 00:15:40;;;;;;;7.75;3.40;;;27.20;47.30;;;;;;5081886;28;20062;-88
2022/07/20 00:18:06;;;;;;;6.65;3.58;;;27.10;47.30;;;;;;5097604;28;20039;-90
2022/07/20 00:20:32;;;;;;;8.05;3.78;;;27.10;47.60;;;;;;5096462;28;20473;-90
2022/07/20 00:22:58;;;;;;;10.98;4.10;;;27.00;47.40;;;;;;5096460;28;20032;-89
2022/07/20 00:25:25;;;;;;;6.22;3.63;;;27.00;47.50;;;;;;5078136;28;20028;-89
2022/07/20 00:27:51;;;;;;;7.13;3.63;;;27.00;47.40;;;;;;5096200;28;20052;-89
2022/07/20 00:30:16;;;;;;;7.65;3.83;;;27.00;47.30;;;;;;5078331;28;20522;-89
2022/07/20 00:32:43;;;;;;;5.75;3.40;;;27.00;47.70;;;;;;5095793;28;20028;-90
2022/07/20 00:35:11;;;;;;;6.13;3.55;;;26.90;47.40;;;;;;5078400;28;20055;-89
2022/07/20 00:37:37;;;;;;;9.02;4.03;;;27.00;47.70;;;;;;5078102;28;20098;-89
2022/07/20 00:40:04;;;;;;;9.52;4.32;;;27.00;47.70;;;;;;5096200;28;20024;-90
2022/07/20 00:42:30;;;;;;;7.00;4.00;;;26.90;47.80;;;;;;5077733;28;20039;-89
2022/07/20 00:44:56;;;;;;;8.30;3.70;;;26.90;47.70;;;;;;5096064;28;20028;-90
2022/07/20 00:47:21;;;;;;;6.70;4.07;;;26.90;47.90;;;;;;5095822;28;20050;-89
2022/07/20 00:49:47;;;;;;;8.48;3.90;;;26.80;47.80;;;;;;5078177;28;20062;-88
2022/07/20 00:52:13;;;;;;;7.75;4.00;;;26.80;47.80;;;;;;5078289;28;20447;-89
2022/07/20 00:54:39;;;;;;;5.60;3.40;;;26.80;47.90;;;;;;5077832;28;20374;-88
2022/07/20 00:57:05;;;;;;;6.53;3.83;;;26.90;48.00;;;;;;5077701;28;20032;-89
2022/07/20 00:59:31;;;;;;;6.47;3.80;;;26.80;48.00;;;;;;5077369;28;20036;-89
2022/07/20 01:01:56;;;;;;;6.82;4.07;;;26.90;48.10;;;;;;5078093;28;20027;-89
2022/07/20 01:04:22;;;;;;;5.03;3.45;;;26.80;48.10;;;;;;5077464;28;20024;-89
2022/07/20 01:06:49;;;;;;;7.60;3.88;;;26.80;48.30;;;;;;5095725;28;20465;-88
2022/07/20 01:09:18;;;;;;;7.32;4.00;;;26.80;48.30;;;;;;5077643;28;20024;-89
2022/07/20 01:11:44;;;;;;;9.73;4.30;;;26.70;48.20;;;;;;5077274;28;20035;-90
2022/07/20 01:14:10;;;;;;;7.53;3.38;;;26.70;48.20;;;;;;5095744;28;20028;-89
2022/07/20 01:16:37;;;;;;;7.25;3.67;;;26.70;48.30;;;;;;5077385;28;20027;-89
2022/07/20 01:19:03;;;;;;;6.80;3.83;;;26.60;48.60;;;;;;5077661;28;20028;-90
2022/07/20 01:21:29;;;;;;;7.72;4.03;;;26.70;48.60;;;;;;5095054;28;20039;-89
2022/07/20 01:23:55;;;;;;;9.05;3.88;;;26.60;48.60;;;;;;5095384;28;20103;-90
2022/07/20 01:26:21;;;;;;;7.25;3.90;;;26.60;48.60;;;;;;5094525;28;20086;-90
2022/07/20 01:28:47;;;;;;;6.13;3.63;;;26.60;48.70;;;;;;5077598;28;20070;-90
2022/07/20 01:31:13;;;;;;;7.65;4.00;;;26.50;48.80;;;;;;5077495;28;20059;-90
2022/07/20 01:33:38;;;;;;;9.57;4.15;;;26.50;48.90;;;;;;5077117;28;20058;-90
2022/07/20 01:36:04;;;;;;;6.65;3.90;;;26.50;49.00;;;;;;5077624;28;20031;-89
2022/07/20 01:38:30;;;;;;;7.10;4.07;;;26.50;49.10;;;;;;5076570;28;20115;-89
2022/07/20 01:40:56;;;;;;;5.95;3.50;;;26.50;49.20;;;;;;5077320;28;20399;-89
2022/07/20 01:43:22;;;;;;;6.80;3.90;;;26.40;49.10;;;;;;5095029;28;20054;-90
2022/07/20 01:45:47;;;;;;;9.93;3.97;;;26.40;49.00;;;;;;5077396;28;20077;-89
2022/07/20 01:48:13;;;;;;;7.55;3.63;;;26.30;49.00;;;;;;5077044;28;20107;-89
2022/07/20 01:50:39;;;;;;;6.57;3.45;;;26.30;49.40;;;;;;5076756;28;20056;-89
2022/07/20 01:53:06;;;;;;;6.68;3.97;;;26.20;49.70;;;;;;5077092;28;20437;-89
2022/07/20 01:55:32;;;;;;;6.28;3.92;;;26.20;49.90;;;;;;5076624;28;20024;-89
2022/07/20 01:57:57;;;;;;;6.28;3.65;;;26.10;50.50;;;;;;5094714;28;20480;-89
2022/07/20 02:00:24;;;;;;;5.78;3.85;;;26.00;50.70;;;;;;5094276;28;20024;-89
2022/07/20 02:02:49;;;;;;;10.35;4.00;;;25.90;50.90;;;;;;5076382;28;20483;-89
2022/07/20 02:05:16;;;;;;;9.50;3.67;;;25.90;50.70;;;;;;5094220;28;20024;-89
2022/07/20 02:07:42;;;;;;;7.30;3.72;;;25.60;51.60;;;;;;5093175;28;20082;-89
2022/07/20 02:10:09;;;;;;;8.13;3.90;;;25.60;51.20;;;;;;5076601;28;20020;-89
2022/07/20 02:12:35;;;;;;;9.90;3.90;;;25.60;51.40;;;;;;5093936;28;20411;-89
2022/07/20 02:15:01;;;;;;;7.57;4.28;;;25.60;51.70;;;;;;5076944;28;20077;-89
2022/07/20 02:17:27;;;;;;;6.43;3.58;;;25.60;51.60;;;;;;5094408;28;20103;-90
2022/07/20 02:19:52;;;;;;;8.43;3.63;;;25.60;51.70;;;;;;5094287;28;20061;-89
2022/07/20 02:22:18;;;;;;;7.03;3.90;;;25.60;51.70;;;;;;5076521;28;20032;-89
2022/07/20 02:24:44;;;;;;;7.00;3.65;;;25.60;51.80;;;;;;5076122;28;20544;-89
2022/07/20 02:27:09;;;;;;;6.97;3.70;;;25.50;52.10;;;;;;5076220;28;20067;-89
2022/07/20 02:29:35;;;;;;;8.50;3.90;;;25.50;52.30;;;;;;5075438;28;20028;-88
2022/07/20 02:32:01;;;;;;;5.43;3.35;;;25.40;52.30;;;;;;5076207;28;20109;-89
2022/07/20 02:34:26;;;;;;;8.85;3.80;;;25.40;52.40;;;;;;5093687;28;20146;-89
2022/07/20 02:36:52;;;;;;;6.80;3.67;;;25.30;52.40;;;;;;5076019;28;20486;-89
2022/07/20 02:39:17;;;;;;;8.40;4.15;;;25.30;52.60;;;;;;5076408;28;20017;-88
2022/07/20 02:41:43;;;;;;;8.15;3.90;;;25.30;52.70;;;;;;5075851;28;20027;-88
2022/07/20 02:44:08;;;;;;;6.90;3.85;;;25.20;52.80;;;;;;5076386;28;20492;-88
2022/07/20 02:46:34;;;;;;;8.85;4.07;;;25.20;53.00;;;;;;5075898;28;20024;-88
2022/07/20 02:49:00;;;;;;;7.75;3.50;;;25.20;53.00;;;;;;5094253;28;20095;-89
2022/07/20 02:51:25;;;;;;;6.25;3.75;;;25.10;53.10;;;;;;5094167;28;20032;-89
2022/07/20 02:53:51;;;;;;;10.60;3.90;;;25.10;53.10;;;;;;5075843;28;20109;-88
2022/07/20 02:56:16;;;;;;;6.95;3.90;;;25.10;53.10;;;;;;5093279;28;20079;-88
2022/07/20 02:58:42;;;;;;;6.43;3.95;;;25.00;53.40;;;;;;5093298;28;20028;-88
2022/07/20 03:01:07;;;;;;;8.00;4.00;;;25.00;53.60;;;;;;5093943;28;20476;-88
2022/07/20 03:03:33;;;;;;;6.57;3.92;;;25.00;53.60;;;;;;5075786;28;20071;-89
2022/07/20 03:06:00;;;;;;;6.50;3.88;;;24.90;53.60;;;;;;5094120;28;20358;-88
2022/07/20 03:08:26;;;;;;;8.02;3.72;;;24.90;54.00;;;;;;5075753;28;20028;-88
2022/07/20 03:10:51;;;;;;;8.43;3.95;;;24.90;53.90;;;;;;5075711;28;20032;-88
2022/07/20 03:13:17;;;;;;;11.20;3.97;;;24.80;54.10;;;;;;5076420;28;20070;-88
2022/07/20 03:15:43;;;;;;;6.80;3.60;;;24.80;54.40;;;;;;5075625;28;20056;-88
2022/07/20 03:18:08;;;;;;;7.15;4.68;;;24.70;54.30;;;;;;5075791;28;20111;-88
2022/07/20 03:20:34;;;;;;;6.10;3.53;;;24.70;54.30;;;;;;5078432;28;20028;-89
2022/07/20 03:23:02;;;;;;;8.88;4.63;;;24.70;54.60;;;;;;5079916;28;20039;-89
2022/07/20 03:25:28;;;;;;;7.30;3.47;;;24.60;54.70;;;;;;5079185;28;20028;-88
2022/07/20 03:27:57;;;;;;;7.38;4.05;;;24.60;54.70;;;;;;5078711;28;20074;-90
2022/07/20 03:30:24;;;;;;;6.70;3.60;;;24.50;54.80;;;;;;5079664;28;20034;-89
2022/07/20 03:32:49;;;;;;;6.28;4.13;;;24.50;54.90;;;;;;5079256;28;20024;-89
2022/07/20 03:35:15;;;;;;;7.15;3.70;;;24.40;55.10;;;;;;5079565;28;20411;-89
2022/07/20 03:37:41;;;;;;;8.55;4.28;;;24.30;55.30;;;;;;5097149;28;20025;-88
2022/07/20 03:40:07;;;;;;;6.00;3.47;;;24.20;55.50;;;;;;5079106;28;20028;-88
2022/07/20 03:42:33;;;;;;;9.35;4.00;;;24.10;55.80;;;;;;5079044;28;20028;-89
2022/07/20 03:44:59;;;;;;;5.82;4.07;;;24.10;56.20;;;;;;5079372;28;20522;-88
2022/07/20 03:47:25;;;;;;;6.45;3.95;;;24.00;56.50;;;;;;5079433;28;20024;-88
2022/07/20 03:49:51;;;;;;;12.65;4.40;;;23.90;56.70;;;;;;5078863;28;20055;-89
2022/07/20 03:52:18;;;;;;;6.85;3.88;;;23.90;57.20;;;;;;5079497;28;20159;-88
2022/07/20 03:54:43;;;;;;;6.50;3.75;;;23.80;57.50;;;;;;5078531;28;20034;-88
2022/07/20 03:57:09;;;;;;;6.40;3.60;;;23.80;57.50;;;;;;5079084;28;20107;-88
2022/07/20 03:59:35;;;;;;;8.27;3.80;;;23.70;57.80;;;;;;5078588;28;20093;-89
2022/07/20 04:02:00;;;;;;;5.85;4.03;;;23.70;58.00;;;;;;5096956;28;20107;-88
2022/07/20 04:04:27;;;;;;;5.88;4.20;;;23.70;58.20;;;;;;5078995;28;20036;-88
2022/07/20 04:06:53;;;;;;;5.88;3.40;;;23.70;58.30;;;;;;5096423;28;20023;-88
2022/07/20 04:09:43;;;;;;;5.28;3.38;;;23.70;58.50;;;;;;5096989;28;20194;-88
2022/07/20 04:12:05;;;;;;;10.80;4.15;;;23.70;58.60;;;;;;5096345;28;20032;-88
2022/07/20 04:14:31;;;;;;;9.25;3.92;;;23.70;58.60;;;;;;5078573;28;20027;-88
2022/07/20 04:16:56;;;;;;;7.00;3.65;;;23.70;58.80;;;;;;5078808;28;20051;-88
2022/07/20 04:19:22;;;;;;;6.57;3.85;;;23.70;59.10;;;;;;5078743;28;20028;-88
2022/07/20 04:21:48;;;;;;;8.40;4.10;;;23.70;59.30;;;;;;5077930;28;20063;-88
2022/07/20 04:24:14;;;;;;;7.90;4.00;;;23.70;59.40;;;;;;5078553;28;20032;-88
2022/07/20 04:26:39;;;;;;;7.95;4.38;;;23.70;59.60;;;;;;5077756;28;20044;-87
2022/07/20 04:29:05;;;;;;;6.30;3.97;;;23.70;59.70;;;;;;5079146;28;20039;-88
2022/07/20 04:31:30;;;;;;;7.35;4.10;;;23.70;59.90;;;;;;5077881;28;20465;-89
2022/07/20 04:33:56;;;;;;;8.90;3.95;;;23.60;60.00;;;;;;5078094;28;20027;-88
2022/07/20 04:36:23;;;;;;;8.48;3.78;;;23.60;60.30;;;;;;5078553;28;20031;-88
2022/07/20 04:38:49;;;;;;;8.05;4.30;;;23.60;60.60;;;;;;5077826;28;20031;-88
2022/07/20 04:41:14;;;;;;;8.02;4.07;;;23.60;60.80;;;;;;5078343;28;20115;-88
2022/07/20 04:43:40;;;;;;;6.95;3.80;;;23.60;60.80;;;;;;5077738;28;20032;-89
2022/07/20 04:46:06;;;;;;;7.00;4.13;;;23.70;60.70;;;;;;5078496;28;20083;-89
2022/07/20 04:48:31;;;;;;;6.68;3.70;;;23.70;62.00;;;;;;5096088;28;20024;-88
2022/07/20 04:50:57;;;;;;;10.13;4.30;;;23.70;61.80;;;;;;5077724;28;20027;-88
2022/07/20 04:53:22;;;;;;;9.07;4.07;;;23.70;61.90;;;;;;5077931;28;20400;-89
2022/07/20 04:55:48;;;;;;;11.50;3.80;;;23.70;62.20;;;;;;5077177;28;20031;-89
2022/07/20 04:58:14;;;;;;;7.43;4.03;;;23.70;62.10;;;;;;5078033;28;20469;-90
2022/07/20 05:00:39;;;;;;;8.88;4.05;;;23.70;62.00;;;;;;5095335;28;20419;-89
2022/07/20 05:03:05;;;;;;;8.63;4.20;;;23.70;61.90;;;;;;5095802;28;20020;-89
2022/07/20 05:05:31;;;;;;;8.27;3.95;;;23.70;62.00;;;;;;5095721;28;20030;-89
2022/07/20 05:07:56;;;;;;;8.57;3.90;;;23.80;62.10;;;;;;5095558;28;20028;-89
2022/07/20 05:10:22;;;;;;;12.50;4.05;;;23.80;62.00;;;;;;5077932;28;20066;-89
2022/07/20 05:12:48;;;;;;;5.72;3.92;;;23.80;61.90;;;;;;5095410;28;20107;-89
2022/07/20 05:15:13;;;;;;;8.10;3.72;;;23.80;61.90;;;;;;5078059;28;20063;-89
2022/07/20 05:17:39;;;;;;;9.93;4.15;;;23.80;62.30;;;;;;5095216;28;20020;-89
2022/07/20 05:20:05;;;;;;;8.38;3.92;;;23.80;62.00;;;;;;5077913;28;20020;-89
2022/07/20 05:22:31;;;;;;;6.28;4.15;;;23.90;62.30;;;;;;5095158;28;20032;-88
2022/07/20 05:24:57;;;;;;;10.55;4.15;;;23.90;62.60;;;;;;5077373;28;20136;-90
2022/07/20 05:27:22;;;;;;;8.05;4.22;;;23.90;62.80;;;;;;5078039;28;20066;-88
2022/07/20 05:29:48;;;;;;;9.57;4.35;;;23.90;63.30;;;;;;5077333;28;20016;-89
2022/07/20 05:32:14;;;;;;;12.45;4.65;;;23.90;63.60;;;;;;5095517;28;20055;-89
2022/07/20 05:34:39;;;;;;;11.13;4.22;;;24.00;63.80;;;;;;5077251;28;20035;-89
2022/07/20 05:37:05;;;;;;;8.18;4.13;;;24.00;63.80;;;;;;5095284;28;20093;-89
2022/07/20 05:39:30;;;;;;;7.60;4.13;;;24.00;64.40;;;;;;5077413;28;20024;-89
2022/07/20 05:41:56;;;;;;;10.20;4.15;;;24.00;64.00;;;;;;5076640;28;20028;-88
2022/07/20 05:44:22;;;;;;;7.07;4.18;;;24.10;63.40;;;;;;5077158;28;20039;-90
2022/07/20 05:46:47;;;;;;;9.80;4.22;;;24.20;63.80;;;;;;5076652;28;20440;-88
2022/07/20 05:49:13;;;;;;;6.43;4.55;;;24.20;63.70;;;;;;5095358;28;20085;-89
2022/07/20 05:51:39;;;;;;;8.93;4.40;;;24.20;63.70;;;;;;5076332;28;20074;-89
2022/07/20 05:54:04;;;;;;;12.13;4.22;;;24.20;63.60;;;;;;5094280;28;20475;-89
2022/07/20 05:56:30;;;;;;;9.45;4.70;;;24.30;63.70;;;;;;5076808;28;20028;-89
2022/07/20 05:58:56;;;;;;;10.77;5.22;;;24.30;63.40;;;;;;5076630;28;20028;-89
2022/07/20 06:01:22;;;;;;;11.93;4.55;;;24.40;63.20;;;;;;5077006;28;20161;-89
2022/07/20 06:03:47;;;;;;;8.93;4.45;;;24.50;62.70;;;;;;5076467;28;20108;-88
2022/07/20 06:06:13;;;;;;;6.70;3.85;;;24.50;62.50;;;;;;5094520;28;20031;-89
2022/07/20 06:08:39;;;;;;;12.70;4.43;;;24.60;61.10;;;;;;5076463;28;20078;-89
2022/07/20 06:11:04;;;;;;;6.82;4.10;;;24.70;60.90;;;;;;5094939;28;20028;-89
2022/07/20 06:13:30;;;;;;;9.20;3.80;;;24.70;60.50;;;;;;5076579;28;20024;-89
2022/07/20 06:15:56;;;;;;;5.93;4.07;;;24.80;60.30;;;;;;5093869;28;20031;-89
2022/07/20 06:18:22;;;;;;;6.80;4.20;;;24.90;60.00;;;;;;5094739;28;20032;-89
2022/07/20 06:20:48;;;;;;;8.95;4.57;;;25.00;59.90;;;;;;5076252;28;20028;-88
2022/07/20 06:23:14;;;;;;;8.95;3.92;;;25.00;59.70;;;;;;5076648;28;20101;-90
2022/07/20 06:25:39;;;;;;;8.75;3.75;;;25.10;59.70;;;;;;5075599;28;20027;-90
2022/07/20 06:28:05;;;;;;;6.65;4.10;;;25.10;59.70;;;;;;5094446;28;20083;-90
2022/07/20 06:30:30;;;;;;;10.60;4.03;;;25.10;59.70;;;;;;5076279;28;20093;-90
2022/07/20 06:32:56;;;;;;;7.68;3.63;;;25.10;59.80;;;;;;5075893;28;20035;-89
2022/07/20 06:35:22;;;;;;;7.00;4.18;;;25.20;59.60;;;;;;5094412;28;20047;-90
2022/07/20 06:37:48;;;;;;;8.20;4.47;;;25.30;59.70;;;;;;5093815;28;20023;-91
2022/07/20 06:40:14;;;;;;;7.60;4.50;;;25.40;59.40;;;;;;5094031;28;20039;-91
2022/07/20 06:42:39;;;;;;;10.00;4.25;;;25.40;59.40;;;;;;5076212;28;20032;-91
2022/07/20 06:45:06;;;;;;;10.02;4.70;;;25.40;58.90;;;;;;5093671;28;20020;-90
2022/07/20 06:47:32;;;;;;;7.72;4.47;;;25.50;59.20;;;;;;5076081;28;20104;-91
2022/07/20 06:49:58;;;;;;;7.00;4.30;;;25.60;58.70;;;;;;5075790;28;20483;-90
2022/07/20 06:52:23;;;;;;;9.15;4.15;;;25.60;58.40;;;;;;5094111;28;20059;-90
2022/07/20 06:54:49;;;;;;;11.10;4.18;;;25.70;58.50;;;;;;5095776;28;20038;-90
2022/07/20 06:57:15;;;;;;;11.52;4.55;;;25.80;58.40;;;;;;5080304;28;20028;-89
2022/07/20 06:59:41;;;;;;;9.13;4.53;;;25.80;58.20;;;;;;5080391;28;20024;-89
2022/07/20 07:02:07;;;;;;;6.43;4.00;;;25.90;58.00;;;;;;5079873;28;20116;-89
2022/07/20 07:04:33;;;;;;;8.15;4.50;;;25.90;57.80;;;;;;5097948;28;20055;-89
2022/07/20 07:06:59;;;;;;;8.13;4.40;;;26.00;58.00;;;;;;5079637;28;20028;-89
2022/07/20 07:09:25;;;;;;;7.03;4.15;;;26.10;57.40;;;;;;5079786;28;20028;-89
2022/07/20 07:11:51;;;;;;;6.65;4.80;;;26.10;57.20;;;;;;5079411;28;20106;-90
2022/07/20 07:14:16;;;;;;;8.07;4.20;;;26.20;56.90;;;;;;5080032;28;20107;-88
2022/07/20 07:16:42;;;;;;;9.60;4.65;;;26.30;56.70;;;;;;5079818;28;20027;-90
2022/07/20 07:19:08;;;;;;;11.20;3.97;;;26.30;56.90;;;;;;5079528;28;20030;-90
2022/07/20 07:21:33;;;;;;;7.25;3.88;;;26.40;56.70;;;;;;5080020;28;20358;-92
2022/07/20 07:23:59;;;;;;;9.27;4.20;;;26.40;56.90;;;;;;5079520;28;20058;-91
2022/07/20 07:26:25;;;;;;;8.35;4.50;;;26.40;57.10;;;;;;5079066;28;20062;-92
2022/07/20 07:28:50;;;;;;;8.60;3.90;;;26.50;57.10;;;;;;5079150;28;20115;-91
2022/07/20 07:31:17;;;;;;;7.00;3.85;;;26.60;56.90;;;;;;5079419;28;20032;-92
2022/07/20 07:33:43;;;;;;;9.25;3.97;;;26.60;57.20;;;;;;5097553;28;20024;-91
2022/07/20 07:36:09;;;;;;;7.95;3.80;;;26.60;57.20;;;;;;5079195;28;20035;-90
2022/07/20 07:38:35;;;;;;;8.80;3.85;;;26.70;57.00;;;;;;5079940;28;20362;-90
2022/07/20 07:41:00;;;;;;;7.45;3.53;;;26.70;56.20;;;;;;5072946;28;20119;-91
2022/07/20 07:43:26;;;;;;;7.90;3.83;;;26.70;56.50;;;;;;5060602;28;20092;-90
2022/07/20 07:45:52;;;;;;;7.20;4.47;;;26.70;56.70;;;;;;5059288;28;20029;-90
2022/07/20 07:48:17;;;;;;;11.43;4.00;;;26.80;56.50;;;;;;5059234;28;20488;-90
2022/07/20 07:50:44;;;;;;;8.43;4.47;;;26.90;56.30;;;;;;5058736;28;20024;-90
2022/07/20 07:53:10;;;;;;;8.35;4.68;;;27.00;56.20;;;;;;5075624;28;20029;-89
2022/07/20 07:55:37;;;;;;;8.13;3.95;;;27.00;55.90;;;;;;5058537;28;20047;-90
2022/07/20 07:58:03;;;;;;;10.60;4.65;;;27.10;55.70;;;;;;5057954;28;20028;-89
2022/07/20 08:00:29;;;;;;;10.48;4.50;;;27.20;55.90;;;;;;5058554;28;20116;-89
2022/07/20 08:02:55;;;;;;;10.30;4.10;;;27.20;56.00;;;;;;5058124;28;20481;-90
2022/07/20 08:05:22;;;;;;;7.78;4.00;;;27.20;56.00;;;;;;5057347;28;20048;-91
2022/07/20 08:07:48;;;;;;;7.85;4.80;;;27.30;56.10;;;;;;5057904;28;20107;-90
2022/07/20 08:10:14;;;;;;;7.65;4.10;;;27.30;56.00;;;;;;5058194;28;20455;-91
2022/07/20 08:12:40;;;;;;;9.88;3.95;;;27.40;55.90;;;;;;5053488;28;20469;-90
2022/07/20 08:15:07;;;;;;;7.10;3.72;;;27.40;56.30;;;;;;5058474;28;20029;-89
2022/07/20 08:17:32;;;;;;;8.68;3.45;;;27.40;56.50;;;;;;5061617;28;20346;-90
2022/07/20 08:19:58;;;;;;;7.93;3.60;;;27.50;56.60;;;;;;5059257;28;20119;-90
2022/07/20 08:22:24;;;;;;;6.65;4.15;;;27.60;56.60;;;;;;5077069;28;20071;-92
2022/07/20 08:24:49;;;;;;;9.98;4.68;;;27.70;56.40;;;;;;5057292;28;20029;-89
2022/07/20 08:27:15;;;;;;;10.38;4.53;;;27.70;56.40;;;;;;5054307;28;20053;-89
2022/07/20 08:29:41;;;;;;;6.07;4.50;;;27.80;56.60;;;;;;5041552;28;20029;-89
2022/07/20 08:32:06;;;;;;;9.82;4.70;;;27.80;56.90;;;;;;5055206;28;20061;-89
2022/07/20 08:34:32;;;;;;;11.25;4.18;;;27.90;56.90;;;;;;5038673;28;20028;-89
2022/07/20 08:36:58;;;;;;;8.00;4.30;;;27.90;57.00;;;;;;5054591;28;20032;-90
2022/07/20 08:39:25;;;;;;;10.13;5.80;;;28.00;57.30;;;;;;5038433;28;20079;-91
2022/07/20 08:41:51;;;;;;;10.23;5.53;;;28.10;57.50;;;;;;5053237;28;20429;-91
2022/07/20 08:44:16;;;;;;;7.47;5.05;;;28.10;57.60;;;;;;5055732;28;20029;-90
2022/07/20 08:46:44;;;;;;;10.90;5.95;;;28.20;57.80;;;;;;5040721;28;20021;-89
2022/07/20 08:49:12;;;;;;;14.00;6.40;;;28.30;57.90;;;;;;5053979;28;20032;-91
2022/07/20 08:51:37;;;;;;;14.45;7.65;;;28.40;58.10;;;;;;5054136;28;20083;-90
2022/07/20 08:54:03;;;;;;;11.75;7.28;;;28.50;58.00;;;;;;5033839;28;20028;-90
2022/07/20 08:56:29;;;;;;;13.90;7.82;;;28.50;58.20;;;;;;5054135;28;20028;-90
2022/07/20 08:58:55;;;;;;;14.77;8.00;;;28.60;58.50;;;;;;5036398;28;20121;-89
2022/07/20 09:01:20;;;;;;;11.85;7.70;;;28.80;58.60;;;;;;5044924;28;20033;-89
2022/07/20 09:04:10;;;;;;;14.60;8.50;;;28.80;58.70;;;;;;5054026;28;20029;-88
2022/07/20 09:06:43;;;;;;;17.40;8.15;;;29.00;58.80;;;;;;5055632;28;20025;-91
2022/07/20 09:09:09;;;;;;;14.05;8.98;;;29.00;58.60;;;;;;5034244;28;20033;-90
2022/07/20 09:11:35;;;;;;;16.90;8.23;;;29.10;58.70;;;;;;5052551;28;20535;-92
2022/07/20 09:14:01;;;;;;;13.70;8.75;;;29.10;58.50;;;;;;5033098;28;20036;-92
2022/07/20 09:16:40;;;;;;;16.38;9.38;;;29.20;58.70;;;;;;5053783;28;20052;-90
2022/07/20 09:19:06;;;;;;;18.80;9.80;;;29.30;58.60;;;;;;5049659;28;20017;-90
2022/07/20 09:21:32;;;;;;;13.65;10.27;;;29.30;58.50;;;;;;5038986;28;20025;-92
2022/07/20 09:24:06;;;;;;;15.82;9.95;;;29.40;58.50;;;;;;5053185;28;20083;-91
2022/07/20 09:26:32;;;;;;;13.70;9.98;;;29.40;58.40;;;;;;5055088;28;20045;-90
2022/07/20 09:29:00;;;;;;;17.80;9.90;;;29.50;58.20;;;;;;5056366;28;20032;-90
2022/07/20 09:31:35;;;;;;;16.58;10.48;;;29.50;58.40;;;;;;5056615;28;20029;-90
2022/07/20 09:34:13;;;;;;;17.65;10.23;;;29.70;58.20;;;;;;5074078;28;20024;-90
2022/07/20 09:36:46;;;;;;;18.58;9.85;;;29.80;58.10;;;;;;5056845;28;20106;-89
2022/07/20 09:39:17;;;;;;;16.98;10.38;;;29.80;58.20;;;;;;5050884;28;20016;-91
2022/07/20 09:41:47;;;;;;;25.30;10.07;;;29.90;58.20;;;;;;5056122;28;20114;-91
2022/07/20 09:44:39;;;;;;;13.60;9.50;;;29.90;58.10;;;;;;5056485;28;20020;-90
2022/07/20 09:47:11;;;;;;;14.32;9.85;;;30.00;58.20;;;;;;5065596;28;20087;-88
2022/07/20 09:49:37;;;;;;;14.60;9.75;;;30.00;57.90;;;;;;5056454;28;20020;-90
2022/07/20 09:52:05;;;;;;;14.20;9.43;;;30.10;57.80;;;;;;5056237;28;20028;-90
2022/07/20 09:54:30;;;;;;;15.15;9.55;;;30.20;57.70;;;;;;5055686;28;20028;-90
2022/07/20 09:56:56;;;;;;;15.18;8.98;;;30.20;58.40;;;;;;5044771;28;20039;-90
2022/07/20 09:59:22;;;;;;;12.07;8.70;;;30.20;57.90;;;;;;5052604;28;20029;-89
2022/07/20 10:01:51;;;;;;;16.50;9.68;;;30.20;57.50;;;;;;5055780;28;20115;-92
2022/07/20 10:04:18;;;;;;;15.43;9.32;;;30.20;58.20;;;;;;5051123;28;20119;-94
2022/07/20 10:06:47;;;;;;;16.27;9.45;;;30.20;57.90;;;;;;5055953;28;20052;-90
2022/07/20 10:09:14;;;;;;;15.43;9.35;;;30.20;57.90;;;;;;5055660;28;20033;-89
2022/07/20 10:11:40;;;;;;;13.88;9.35;;;30.30;58.00;;;;;;5055990;28;20067;-89
2022/07/20 10:14:07;;;;;;;16.80;9.80;;;30.30;58.10;;;;;;5056037;28;20029;-91
2022/07/20 10:16:51;;;;;;;15.25;9.70;;;30.30;58.10;;;;;;5056373;28;20029;-88
2022/07/20 10:19:17;;;;;;;15.05;9.60;;;30.40;58.50;;;;;;5052064;28;20405;-90
2022/07/20 10:21:46;;;;;;;12.55;9.77;;;30.50;58.50;;;;;;5072336;28;20552;-91
2022/07/20 10:24:25;;;;;;;17.00;9.73;;;30.50;58.50;;;;;;5050248;28;20393;-91
2022/07/20 10:26:53;;;;;;;15.05;10.15;;;30.50;58.30;;;;;;5073269;28;20069;-91
2022/07/20 10:29:31;;;;;;;16.02;10.07;;;30.50;58.30;;;;;;5054990;28;20033;-91
2022/07/20 10:32:20;;;;;;;16.52;10.13;;;30.60;58.50;;;;;;5055735;28;20093;-90
2022/07/20 10:35:03;;;;;;;16.05;10.27;;;30.60;58.60;;;;;;5050469;28;20082;-91
2022/07/20 10:37:38;;;;;;;15.25;9.95;;;30.60;59.10;;;;;;5041257;28;20053;-90
2022/07/20 10:40:26;;;;;;;16.13;10.00;;;30.70;59.10;;;;;;5038278;28;20124;-90
2022/07/20 10:43:30;;;;;;;18.65;10.45;;;30.80;59.20;;;;;;5069318;28;20474;-90
2022/07/20 10:45:56;;;;;;;18.42;10.43;;;30.80;59.50;;;;;;4965100;28;20093;-90
2022/07/20 10:48:22;;;;;;;15.27;10.88;;;30.80;59.90;;;;;;4973144;28;20035;-91
2022/07/20 10:50:53;;;;;;;16.98;11.07;;;30.90;59.80;;;;;;4956310;28;20050;-91
2022/07/20 10:53:21;;;;;;;16.65;10.88;;;31.00;59.40;;;;;;4960312;28;20157;-89
2022/07/20 10:55:55;;;;;;;18.23;11.32;;;31.10;59.20;;;;;;4948693;28;20491;-89
2022/07/20 10:58:31;;;;;;;16.25;10.57;;;31.10;59.40;;;;;;4967526;28;20043;-91
2022/07/20 11:01:03;;;;;;;17.02;10.63;;;31.20;59.20;;;;;;4957169;28;20077;-90
2022/07/20 11:03:37;;;;;;;18.55;11.48;;;31.30;60.20;;;;;;4955204;28;20463;-90
2022/07/20 11:06:09;;;;;;;17.60;10.68;;;31.30;59.50;;;;;;4952769;29;20058;-90
2022/07/20 11:08:36;;;;;;;17.65;11.93;;;31.40;59.50;;;;;;4960562;28;20502;-90
2022/07/20 11:11:03;;;;;;;16.70;10.18;;;31.50;58.20;;;;;;4959750;28;20481;-91
2022/07/20 11:13:29;;;;;;;17.58;10.43;;;31.50;58.00;;;;;;4953190;29;20028;-90
2022/07/20 11:16:00;;;;;;;13.15;9.48;;;31.50;58.00;;;;;;4967432;28;20132;-91
2022/07/20 11:18:29;;;;;;;15.25;9.73;;;31.60;57.70;;;;;;5058265;28;20020;-92
2022/07/20 11:20:58;;;;;;;15.93;9.40;;;31.60;57.30;;;;;;5066470;28;20029;-90
2022/07/20 11:23:26;;;;;;;15.27;10.30;;;31.60;57.10;;;;;;5069495;28;20020;-91
2022/07/20 11:26:00;;;;;;;15.15;9.63;;;31.60;56.70;;;;;;5050032;28;20029;-89
2022/07/20 11:28:32;;;;;;;13.85;9.27;;;31.70;56.70;;;;;;5055455;28;20048;-88
2022/07/20 11:30:59;;;;;;;16.42;9.65;;;31.70;56.50;;;;;;5054678;28;20029;-91
2022/07/20 11:33:30;;;;;;;17.85;10.02;;;31.70;56.70;;;;;;5055519;28;20051;-89
2022/07/20 11:36:00;;;;;;;17.13;9.63;;;31.80;56.30;;;;;;5054335;28;20410;-89
2022/07/20 11:38:47;;;;;;;15.48;9.35;;;31.90;56.10;;;;;;5054953;28;20023;-89
2022/07/20 11:41:17;;;;;;;17.67;9.55;;;31.90;55.10;;;;;;5056328;28;20032;-89
2022/07/20 11:43:43;;;;;;;14.38;9.35;;;32.00;55.40;;;;;;5058271;28;20024;-88
2022/07/20 11:46:17;;;;;;;14.15;9.38;;;32.20;54.50;;;;;;5047343;28;20029;-90
2022/07/20 11:48:51;;;;;;;15.05;9.57;;;32.20;53.90;;;;;;5049273;28;20468;-90
2022/07/20 11:51:17;;;;;;;13.00;9.63;;;32.30;54.30;;;;;;5056703;28;20027;-91
2022/07/20 11:53:43;;;;;;;11.73;9.25;;;32.30;54.50;;;;;;5057996;28;20112;-89
2022/07/20 11:56:21;;;;;;;15.05;8.90;;;32.30;53.70;;;;;;5045070;28;20033;-90
2022/07/20 11:58:50;;;;;;;18.17;8.98;;;32.40;53.50;;;;;;5073072;28;20028;-90
2022/07/20 12:01:24;;;;;;;10.63;8.02;;;32.40;53.40;;;;;;5058445;28;20025;-90
2022/07/20 12:03:55;;;;;;;12.93;8.13;;;32.40;53.20;;;;;;5070791;28;20020;-90
2022/07/20 12:06:22;;;;;;;13.20;8.73;;;32.70;53.10;;;;;;5056262;28;20024;-89
2022/07/20 12:09:11;;;;;;;14.38;8.80;;;32.90;52.40;;;;;;5054944;28;20063;-91
2022/07/20 12:12:03;;;;;;;14.65;8.63;;;33.00;52.10;;;;;;5056350;28;20028;-89
2022/07/20 12:14:29;;;;;;;16.77;9.40;;;33.10;52.20;;;;;;5074889;28;20024;-89
2022/07/20 12:16:55;;;;;;;15.35;9.35;;;33.20;52.30;;;;;;5052276;28;20078;-91
2022/07/20 12:19:21;;;;;;;12.98;8.98;;;33.20;51.60;;;;;;5058363;28;20055;-90
2022/07/20 12:21:47;;;;;;;14.48;8.70;;;33.10;51.80;;;;;;5076060;28;20040;-91
2022/07/20 12:24:13;;;;;;;13.80;8.27;;;33.20;52.20;;;;;;5070411;28;20183;-90
2022/07/20 12:26:40;;;;;;;11.07;8.68;;;33.30;52.10;;;;;;5054284;28;20072;-91
2022/07/20 12:29:25;;;;;;;11.95;8.82;;;33.40;52.30;;;;;;5053078;28;20057;-91
2022/07/20 12:32:06;;;;;;;13.23;8.35;;;33.20;52.40;;;;;;5055851;28;20027;-92
2022/07/20 12:34:52;;;;;;;14.83;9.40;;;33.20;52.90;;;;;;5038426;28;20033;-92
2022/07/20 12:37:18;;;;;;;16.35;8.75;;;33.10;52.80;;;;;;5034197;28;20349;-92
2022/07/20 12:39:53;;;;;;;12.98;8.55;;;33.00;52.30;;;;;;5041518;28;20032;-91
2022/07/20 12:42:29;;;;;;;12.65;8.50;;;33.00;52.40;;;;;;5046970;28;20033;-91
2022/07/20 12:45:03;;;;;;;13.18;8.18;;;33.00;52.50;;;;;;5051165;28;20060;-91
2022/07/20 12:47:29;;;;;;;13.20;8.25;;;33.20;52.80;;;;;;5040139;28;20025;-91